Time,TemperatureF,DewpointF,PressureIn,WindDirection,WindDirectionDegrees,WindSpeedMPH,WindSpeedGustMPH,Humidity,HourlyPrecipIn,Conditions,Clouds,dailyrainin,SoftwareType,DateUTC
2013-03-01 00:13:00,37.2,28.3,29.85,NNW,337,2.2,-999.0,70,-99.99,,,0.00,Acu-Link.com,2013-03-01 05:13:00,
2013-03-01 00:28:00,37.2,28.7,29.85,WNW,292,2.7,-999.0,71,-99.99,,,0.00,Acu-Link.com,2013-03-01 05:28:00,
2013-03-01 00:44:00,37.0,28.1,29.84,North,0,2.2,-999.0,70,-99.99,,,0.00,Acu-Link.com,2013-03-01 05:44:00,
2013-03-01 00:59:00,37.0,28.5,29.84,SE,135,2.7,-999.0,71,-99.99,,,0.00,Acu-Link.com,2013-03-01 05:59:00,
2013-03-01 01:14:00,37.0,28.5,29.84,NNW,337,2.2,-999.0,71,-99.99,,,0.00,Acu-Link.com,2013-03-01 06:14:00,
2013-03-01 01:29:00,37.0,28.5,29.83,West,270,1.7,-999.0,71,-99.99,,,0.00,Acu-Link.com,2013-03-01 06:29:00,
2013-03-01 01:44:00,36.9,29.1,29.83,East,90,1.1,-999.0,73,-99.99,,,0.00,Acu-Link.com,2013-03-01 06:44:00,
2013-03-01 01:59:00,36.9,28.4,29.83,East,90,0.0,-999.0,71,-99.99,,,0.00,Acu-Link.com,2013-03-01 06:59:00,
2013-03-01 02:15:00,36.9,28.7,29.82,NNW,337,0.0,-999.0,72,-99.99,,,0.00,Acu-Link.com,2013-03-01 07:15:00,
2013-03-01 02:30:00,36.9,28.7,29.82,East,90,2.7,-999.0,72,-99.99,,,0.00,Acu-Link.com,2013-03-01 07:30:00,
2013-03-01 02:45:00,36.9,29.1,29.82,SSE,157,0.0,-999.0,73,-99.99,,,0.00,Acu-Link.com,2013-03-01 07:45:00,
2013-03-01 03:00:00,36.9,28.7,29.82,WNW,292,2.2,-999.0,72,-99.99,,,0.00,Acu-Link.com,2013-03-01 08:00:00,
2013-03-01 03:15:00,36.9,29.1,29.82,South,180,2.7,-999.0,73,-99.99,,,0.00,Acu-Link.com,2013-03-01 08:15:00,
2013-03-01 03:30:00,36.9,29.4,29.82,WSW,247,1.7,-999.0,74,-99.99,,,0.00,Acu-Link.com,2013-03-01 08:30:00,
2013-03-01 03:45:00,36.9,29.7,29.83,South,180,0.0,-999.0,75,-99.99,,,0.00,Acu-Link.com,2013-03-01 08:45:00,
2013-03-01 04:00:00,36.7,29.2,29.83,NE,45,2.7,-999.0,74,-99.99,,,0.00,Acu-Link.com,2013-03-01 09:00:00,
2013-03-01 04:19:00,36.7,29.2,29.84,NNE,22,0.0,-999.0,74,-99.99,,,0.00,Acu-Link.com,2013-03-01 09:19:00,
2013-03-01 04:35:00,36.7,29.9,29.84,SSW,202,0.0,-999.0,76,-99.99,,,0.00,Acu-Link.com,2013-03-01 09:35:00,
2013-03-01 04:50:00,36.5,29.3,29.83,South,180,0.0,-999.0,75,-99.99,,,0.00,Acu-Link.com,2013-03-01 09:50:00,
2013-03-01 05:05:00,36.5,29.7,29.84,NW,315,2.7,-999.0,76,-99.99,,,0.00,Acu-Link.com,2013-03-01 10:05:00,
2013-03-01 05:20:00,36.5,29.7,29.84,SSW,202,0.0,-999.0,76,-99.99,,,0.00,Acu-Link.com,2013-03-01 10:20:00,
2013-03-01 05:35:00,36.5,30.3,29.83,ESE,112,1.7,-999.0,78,-99.99,,,0.00,Acu-Link.com,2013-03-01 10:35:00,
2013-03-01 05:50:00,36.3,29.8,29.83,East,90,3.7,-999.0,77,-99.99,,,0.00,Acu-Link.com,2013-03-01 10:50:00,
2013-03-01 06:05:00,36.3,30.1,29.83,ENE,67,2.7,-999.0,78,-99.99,,,0.00,Acu-Link.com,2013-03-01 11:05:00,
2013-03-01 06:20:00,36.3,30.1,29.82,NE,45,0.0,-999.0,78,-99.99,,,0.00,Acu-Link.com,2013-03-01 11:20:00,
2013-03-01 06:35:00,36.3,30.1,29.83,North,0,0.0,-999.0,78,-99.99,,,0.00,Acu-Link.com,2013-03-01 11:35:00,
2013-03-01 06:51:00,36.3,30.4,29.83,WNW,292,1.1,-999.0,79,-99.99,,,0.00,Acu-Link.com,2013-03-01 11:51:00,
2013-03-01 07:06:00,36.3,30.4,29.84,NE,45,2.7,-999.0,79,-99.99,,,0.00,Acu-Link.com,2013-03-01 12:06:00,
2013-03-01 07:21:00,36.3,30.4,29.84,NNE,22,2.2,-999.0,79,-99.99,,,0.00,Acu-Link.com,2013-03-01 12:21:00,
2013-03-01 07:36:00,36.5,30.6,29.85,ESE,112,0.0,-999.0,79,-99.99,,,0.00,Acu-Link.com,2013-03-01 12:36:00,
2013-03-01 07:51:00,36.5,30.3,29.85,WNW,292,0.0,-999.0,78,-99.99,,,0.00,Acu-Link.com,2013-03-01 12:51:00,
2013-03-01 08:06:00,36.5,30.6,29.85,SSW,202,1.7,-999.0,79,-99.99,,,0.00,Acu-Link.com,2013-03-01 13:06:00,
2013-03-01 08:21:00,36.7,30.8,29.85,SSE,157,1.1,-999.0,79,-99.99,,,0.00,Acu-Link.com,2013-03-01 13:21:00,
2013-03-01 08:36:00,37.0,31.1,29.86,West,270,1.7,-999.0,79,-99.99,,,0.00,Acu-Link.com,2013-03-01 13:36:00,
2013-03-01 08:51:00,37.6,31.4,29.85,South,180,2.7,-999.0,78,-99.99,,,0.00,Acu-Link.com,2013-03-01 13:51:00,
2013-03-01 09:07:00,38.7,31.5,29.85,SSW,202,2.7,-999.0,75,-99.99,,,0.00,Acu-Link.com,2013-03-01 14:07:00,
2013-03-01 09:22:00,39.0,31.8,29.86,WSW,247,5.3,-999.0,75,-99.99,,,0.00,Acu-Link.com,2013-03-01 14:22:00,
2013-03-01 09:37:00,39.9,31.6,29.85,NNE,22,1.1,-999.0,72,-99.99,,,0.00,Acu-Link.com,2013-03-01 14:37:00,
2013-03-01 09:52:00,39.6,31.7,29.85,SSW,202,3.2,-999.0,73,-99.99,,,0.00,Acu-Link.com,2013-03-01 14:52:00,
2013-03-01 10:07:00,39.0,31.8,29.85,SSW,202,4.7,-999.0,75,-99.99,,,0.00,Acu-Link.com,2013-03-01 15:07:00,
2013-03-01 10:22:00,40.1,32.5,29.86,East,90,2.7,-999.0,74,-99.99,,,0.00,Acu-Link.com,2013-03-01 15:22:00,
2013-03-01 10:37:00,39.6,32.0,29.86,South,180,4.2,-999.0,74,-99.99,,,0.00,Acu-Link.com,2013-03-01 15:37:00,
2013-03-01 10:52:00,39.4,32.1,29.87,SE,135,3.2,-999.0,75,-99.99,,,0.00,Acu-Link.com,2013-03-01 15:52:00,
2013-03-01 11:07:00,39.6,32.0,29.87,West,270,2.7,-999.0,74,-99.99,,,0.00,Acu-Link.com,2013-03-01 16:07:00,
2013-03-01 11:22:00,39.9,32.0,29.87,North,0,0.0,-999.0,73,-99.99,,,0.00,Acu-Link.com,2013-03-01 16:22:00,
2013-03-01 11:38:00,39.9,32.3,29.86,North,0,3.2,-999.0,74,-99.99,,,0.00,Acu-Link.com,2013-03-01 16:38:00,
2013-03-01 11:53:00,40.5,31.8,29.86,WNW,292,0.0,-999.0,71,-99.99,,,0.00,Acu-Link.com,2013-03-01 16:53:00,
2013-03-01 12:08:00,41.5,32.1,29.86,North,0,3.2,-999.0,69,-99.99,,,0.00,Acu-Link.com,2013-03-01 17:08:00,
2013-03-01 12:23:00,41.0,31.6,29.86,NE,45,0.0,-999.0,69,-99.99,,,0.00,Acu-Link.com,2013-03-01 17:23:00,
2013-03-01 12:38:00,40.8,31.8,29.86,WNW,292,2.2,-999.0,70,-99.99,,,0.00,Acu-Link.com,2013-03-01 17:38:00,
2013-03-01 12:53:00,41.0,31.6,29.85,ESE,112,2.7,-999.0,69,-99.99,,,0.00,Acu-Link.com,2013-03-01 17:53:00,
2013-03-01 13:08:00,42.1,31.9,29.84,WNW,292,2.2,-999.0,67,-99.99,,,0.00,Acu-Link.com,2013-03-01 18:08:00,
2013-03-01 13:23:00,41.2,31.5,29.84,NNW,337,1.7,-999.0,68,-99.99,,,0.00,Acu-Link.com,2013-03-01 18:23:00,
2013-03-01 13:38:00,41.4,31.6,29.84,SE,135,2.2,-999.0,68,-99.99,,,0.00,Acu-Link.com,2013-03-01 18:38:00,
2013-03-01 13:54:00,42.1,31.2,29.83,ESE,112,2.7,-999.0,65,-99.99,,,0.00,Acu-Link.com,2013-03-01 18:54:00,
2013-03-01 14:09:00,41.7,31.2,29.83,SSW,202,3.7,-999.0,66,-99.99,,,0.00,Acu-Link.com,2013-03-01 19:09:00,
2013-03-01 14:24:00,40.6,31.6,29.83,South,180,4.2,-999.0,70,-99.99,,,0.00,Acu-Link.com,2013-03-01 19:24:00,
2013-03-01 14:39:00,40.3,31.0,29.83,SE,135,3.2,-999.0,69,-99.99,,,0.00,Acu-Link.com,2013-03-01 19:39:00,
2013-03-01 14:54:00,40.3,31.3,29.83,NNE,22,2.2,-999.0,70,-99.99,,,0.00,Acu-Link.com,2013-03-01 19:54:00,
2013-03-01 15:09:00,40.3,31.0,29.83,SW,225,1.7,-999.0,69,-99.99,,,0.00,Acu-Link.com,2013-03-01 20:09:00,
2013-03-01 15:24:00,40.5,30.8,29.83,NE,45,2.2,-999.0,68,-99.99,,,0.00,Acu-Link.com,2013-03-01 20:24:00,
2013-03-01 15:39:00,40.3,31.3,29.83,NNW,337,2.2,-999.0,70,-99.99,,,0.00,Acu-Link.com,2013-03-01 20:39:00,
2013-03-01 15:54:00,39.9,30.9,29.83,SW,225,2.7,-999.0,70,-99.99,,,0.00,Acu-Link.com,2013-03-01 20:54:00,
2013-03-01 16:10:00,39.9,30.9,29.83,NE,45,3.2,-999.0,70,-99.99,,,0.00,Acu-Link.com,2013-03-01 21:10:00,
2013-03-01 16:25:00,39.9,31.3,29.83,South,180,1.7,-999.0,71,-99.99,,,0.00,Acu-Link.com,2013-03-01 21:25:00,
2013-03-01 16:40:00,40.3,31.7,29.83,WNW,292,3.2,-999.0,71,-99.99,,,0.00,Acu-Link.com,2013-03-01 21:40:00,
2013-03-01 16:55:00,39.9,31.3,29.83,NNE,22,1.1,-999.0,71,-99.99,,,0.00,Acu-Link.com,2013-03-01 21:55:00,
2013-03-01 17:10:00,39.7,31.1,29.84,South,180,2.2,-999.0,71,-99.99,,,0.00,Acu-Link.com,2013-03-01 22:10:00,
2013-03-01 17:25:00,39.6,31.3,29.84,South,180,2.2,-999.0,72,-99.99,,,0.00,Acu-Link.com,2013-03-01 22:25:00,
2013-03-01 17:40:00,39.6,31.7,29.84,SSE,157,0.0,-999.0,73,-99.99,,,0.00,Acu-Link.com,2013-03-01 22:40:00,
2013-03-01 17:55:00,39.0,31.4,29.83,SSW,202,1.1,-999.0,74,-99.99,,,0.00,Acu-Link.com,2013-03-01 22:55:00,
2013-03-01 18:10:00,39.0,31.1,29.83,SSW,202,0.0,-999.0,73,-99.99,,,0.00,Acu-Link.com,2013-03-01 23:10:00,
2013-03-01 18:26:00,38.8,31.2,29.83,North,0,0.0,-999.0,74,-99.99,,,0.00,Acu-Link.com,2013-03-01 23:26:00,
2013-03-01 18:41:00,38.7,31.5,29.83,SSE,157,1.1,-999.0,75,-99.99,,,0.00,Acu-Link.com,2013-03-01 23:41:00,
2013-03-01 18:56:00,38.7,31.1,29.83,East,90,1.7,-999.0,74,-99.99,,,0.00,Acu-Link.com,2013-03-01 23:56:00,
2013-03-01 19:11:00,38.7,31.1,29.83,NW,315,2.2,-999.0,74,-99.99,,,0.00,Acu-Link.com,2013-03-02 00:11:00,
2013-03-01 19:26:00,38.3,30.8,29.84,WSW,247,2.2,-999.0,74,-99.99,,,0.00,Acu-Link.com,2013-03-02 00:26:00,
2013-03-01 19:41:00,38.3,31.4,29.84,WNW,292,0.0,-999.0,76,-99.99,,,0.00,Acu-Link.com,2013-03-02 00:41:00,
2013-03-01 19:56:00,38.1,31.5,29.84,ENE,67,0.0,-999.0,77,-99.99,,,0.00,Acu-Link.com,2013-03-02 00:56:00,
2013-03-01 20:11:00,37.8,30.9,29.85,SE,135,1.1,-999.0,76,-99.99,,,0.00,Acu-Link.com,2013-03-02 01:11:00,
2013-03-01 20:26:00,37.8,30.9,29.85,ESE,112,0.0,-999.0,76,-99.99,,,0.00,Acu-Link.com,2013-03-02 01:26:00,
2013-03-01 20:42:00,37.8,31.6,29.86,North,0,3.2,-999.0,78,-99.99,,,0.00,Acu-Link.com,2013-03-02 01:42:00,
2013-03-01 20:57:00,37.4,31.8,29.85,NNW,337,1.7,-999.0,80,-99.99,,,0.00,Acu-Link.com,2013-03-02 01:57:00,
2013-03-01 21:27:00,36.7,32.9,29.86,South,180,0.0,-999.0,86,-99.99,,,0.00,Acu-Link.com,2013-03-02 02:27:00,
2013-03-01 21:42:00,36.3,33.4,29.85,SSW,202,3.2,-999.0,89,-99.99,,,0.00,Acu-Link.com,2013-03-02 02:42:00,
2013-03-01 21:57:00,36.1,33.5,29.85,SSW,202,1.1,-999.0,90,-99.99,,,0.00,Acu-Link.com,2013-03-02 02:57:00,
2013-03-01 22:12:00,35.8,33.7,29.85,SSE,157,2.7,-999.0,92,-99.99,,,0.00,Acu-Link.com,2013-03-02 03:12:00,
2013-03-01 22:27:00,35.6,33.5,29.84,SSE,157,1.7,-999.0,92,-99.99,,,0.00,Acu-Link.com,2013-03-02 03:27:00,
2013-03-01 22:42:00,35.4,33.6,29.84,SSW,202,3.2,-999.0,93,-99.99,,,0.00,Acu-Link.com,2013-03-02 03:42:00,
2013-03-01 22:58:00,35.4,33.6,29.84,SSW,202,1.7,-999.0,93,-99.99,,,0.00,Acu-Link.com,2013-03-02 03:58:00,
2013-03-01 23:13:00,35.2,33.4,29.84,SSW,202,1.7,-999.0,93,-99.99,,,0.00,Acu-Link.com,2013-03-02 04:13:00,
2013-03-01 23:28:00,35.2,33.4,29.84,South,180,3.2,-999.0,93,-99.99,,,0.00,Acu-Link.com,2013-03-02 04:28:00,
2013-03-01 23:43:00,35.2,33.1,29.84,SW,225,2.2,-999.0,92,-99.99,,,0.00,Acu-Link.com,2013-03-02 04:43:00,
2013-03-01 23:58:00,35.2,32.8,29.84,SSW,202,0.0,-999.0,91,-99.99,,,0.00,Acu-Link.com,2013-03-02 04:58:00,